createdAt,value
2023-03-27T00:01:02.366Z,23.25
2023-03-27T00:03:34.521Z,27.75
2023-03-27T00:06:12.079Z,25.52
2023-03-27T00:08:46.474Z,26.02
2023-03-27T00:11:22.126Z,27.50
2023-03-27T00:13:54.883Z,26.67
2023-03-27T00:16:27.660Z,25.42
2023-03-27T00:19:00.514Z,28.30
2023-03-27T00:21:32.208Z,26.00
2023-03-27T00:24:06.201Z,28.45
2023-03-27T00:26:41.459Z,24.38
2023-03-27T00:29:13.545Z,29.15
2023-03-27T00:31:45.399Z,30.45
2023-03-27T00:34:17.100Z,26.33
2023-03-27T00:36:51.228Z,26.58
2023-03-27T00:39:23.791Z,30.85
2023-03-27T00:41:56.084Z,27.30
2023-03-27T00:44:34.919Z,24.48
2023-03-27T00:47:10.224Z,28.75
2023-03-27T00:49:42.754Z,29.45
2023-03-27T00:52:16.805Z,30.55
2023-03-27T00:54:52.186Z,28.83
2023-03-27T00:57:25.174Z,25.58
2023-03-27T01:00:00.614Z,24.17
2023-03-27T01:02:32.409Z,38.70
2023-03-27T01:05:04.861Z,24.35
2023-03-27T01:07:37.982Z,23.80
2023-03-27T01:10:12.067Z,25.90
2023-03-27T01:13:21.317Z,26.85
2023-03-27T01:16:05.731Z,28.67
2023-03-27T01:19:00.918Z,23.95
2023-03-27T01:21:51.865Z,25.35
2023-03-27T01:24:59.119Z,22.13
2023-03-27T01:27:53.934Z,27.08
2023-03-27T01:30:42.311Z,24.70
2023-03-27T01:33:50.468Z,25.98
2023-03-27T01:36:39.804Z,25.02
2023-03-27T01:39:18.851Z,24.95
2023-03-27T01:42:31.509Z,27.88
2023-03-27T01:45:10.934Z,27.90
2023-03-27T01:48:11.164Z,31.33
2023-03-27T01:50:48.699Z,22.73
2023-03-27T01:53:29.943Z,27.65
2023-03-27T01:56:10.605Z,27.17
2023-03-27T01:58:46.405Z,27.45
2023-03-27T02:01:28.314Z,24.10
2023-03-27T02:04:03.926Z,25.33
2023-03-27T02:06:44.316Z,26.85
2023-03-27T02:09:22.088Z,32.70
2023-03-27T02:12:01.816Z,25.33
2023-03-27T02:14:43.674Z,25.35
2023-03-27T02:17:19.202Z,29.70
2023-03-27T02:19:56.900Z,25.20
2023-03-27T02:22:37.590Z,23.92
2023-03-27T02:25:30.020Z,25.30
2023-03-27T02:28:19.907Z,20.23
2023-03-27T02:31:33.303Z,22.00
2023-03-27T02:34:35.427Z,21.08
2023-03-27T02:37:32.305Z,21.73
2023-03-27T02:40:40.419Z,23.80
2023-03-27T02:43:48.855Z,20.75
2023-03-27T02:46:36.763Z,19.30
2023-03-27T02:49:16.104Z,23.67
2023-03-27T02:51:54.280Z,26.50
2023-03-27T02:54:34.472Z,25.38
2023-03-27T02:57:21.818Z,25.08
2023-03-27T03:00:33.131Z,26.08
2023-03-27T03:03:44.522Z,27.38
2023-03-27T03:06:34.706Z,30.13
2023-03-27T03:09:06.747Z,31.70
2023-03-27T03:11:48.389Z,27.08
2023-03-27T03:14:25.507Z,31.40
2023-03-27T03:16:57.305Z,30.63
2023-03-27T03:19:29.086Z,31.88
2023-03-27T03:22:01.723Z,28.10
2023-03-27T03:24:42.007Z,25.42
2023-03-27T03:27:15.423Z,21.10
2023-03-27T03:30:00.774Z,23.55
2023-03-27T03:32:34.079Z,18.45
2023-03-27T03:35:08.956Z,15.18
2023-03-27T03:37:41.700Z,15.00
2023-03-27T03:40:18.875Z,14.18
2023-03-27T03:42:52.861Z,13.30
2023-03-27T03:45:29.123Z,15.52
2023-03-27T03:48:01.148Z,16.05
2023-03-27T03:50:33.071Z,12.38
2023-03-27T03:53:05.236Z,10.65
2023-03-27T03:55:37.442Z,11.35
2023-03-27T03:58:09.842Z,11.38
2023-03-27T04:00:44.546Z,7.65
2023-03-27T04:03:32.407Z,7.38
2023-03-27T04:08:37.894Z,4.85
2023-03-27T04:11:10.268Z,4.57
2023-03-27T04:14:03.971Z,2.80
2023-03-27T04:16:41.728Z,2.92
2023-03-27T04:19:23.928Z,3.88
2023-03-27T04:22:02.580Z,2.50
2023-03-27T04:24:38.744Z,2.45
2023-03-27T04:27:13.862Z,2.63
2023-03-27T04:30:10.233Z,2.50
2023-03-27T04:33:00.282Z,2.58
2023-03-27T04:36:05.967Z,2.42
2023-03-27T04:38:48.018Z,3.45
2023-03-27T04:41:21.384Z,2.75
2023-03-27T04:43:55.800Z,6.30
2023-03-27T04:46:28.492Z,5.40
2023-03-27T04:49:10.635Z,2.22
2023-03-27T04:52:00.832Z,3.75
2023-03-27T04:54:34.628Z,4.85
2023-03-27T04:57:07.850Z,2.92
2023-03-27T04:59:39.812Z,11.27
2023-03-27T05:02:37.685Z,2.38
2023-03-27T05:05:22.094Z,4.13
2023-03-27T05:07:55.776Z,5.35
2023-03-27T05:10:29.942Z,3.97
2023-03-27T05:13:01.791Z,2.88
2023-03-27T05:15:33.781Z,2.40
2023-03-27T05:18:09.139Z,2.40
2023-03-27T05:20:43.889Z,2.60
2023-03-27T05:23:16.574Z,2.40
2023-03-27T05:25:59.913Z,2.72
2023-03-27T05:28:42.472Z,2.03
2023-03-27T05:31:14.158Z,3.33
2023-03-27T05:34:02.757Z,2.55
2023-03-27T05:36:37.553Z,2.03
2023-03-27T05:39:09.363Z,3.30
2023-03-27T05:42:01.007Z,2.67
2023-03-27T05:44:32.657Z,2.63
2023-03-27T05:47:07.380Z,2.92
2023-03-27T05:49:41.250Z,3.35
2023-03-27T05:52:16.936Z,2.75
2023-03-27T05:54:50.235Z,2.40
2023-03-27T05:57:22.023Z,2.67
2023-03-27T06:00:00.271Z,3.05
2023-03-27T06:02:32.082Z,2.45
2023-03-27T06:05:10.895Z,3.20
2023-03-27T06:07:45.335Z,3.40
2023-03-27T06:10:18.306Z,3.95
2023-03-27T06:13:16.342Z,5.38
2023-03-27T06:18:51.723Z,2.47
2023-03-27T06:21:24.779Z,2.38
2023-03-27T06:24:02.705Z,2.10
2023-03-27T06:26:34.763Z,2.08
2023-03-27T06:29:08.769Z,3.63
2023-03-27T06:31:44.793Z,3.72
2023-03-27T06:34:27.787Z,3.63
2023-03-27T06:37:37.232Z,4.50
2023-03-27T06:40:10.421Z,3.70
2023-03-27T06:42:52.147Z,3.97
2023-03-27T06:45:46.218Z,3.90
2023-03-27T06:48:22.076Z,4.55
2023-03-27T06:51:00.506Z,3.40
2023-03-27T06:53:37.902Z,4.28
2023-03-27T06:56:10.316Z,4.05
2023-03-27T06:59:01.300Z,4.55
2023-03-27T07:01:33.381Z,2.80
2023-03-27T07:04:23.794Z,3.38
2023-03-27T07:07:04.333Z,2.63
2023-03-27T07:09:40.912Z,3.38
2023-03-27T07:12:13.989Z,4.75
2023-03-27T07:14:48.364Z,4.03
2023-03-27T07:17:20.302Z,5.50
2023-03-27T07:19:56.823Z,2.60
2023-03-27T07:22:32.092Z,5.13
2023-03-27T07:25:12.236Z,5.15
2023-03-27T07:27:47.241Z,4.82
2023-03-27T07:30:19.419Z,3.13
2023-03-27T07:32:51.598Z,5.93
2023-03-27T07:35:25.625Z,3.92
2023-03-27T07:38:35.983Z,2.63
2023-03-27T07:41:19.669Z,4.57
2023-03-27T07:44:14.637Z,4.60
2023-03-27T07:46:58.693Z,3.20
2023-03-27T07:49:40.333Z,5.13
2023-03-27T07:52:21.798Z,7.03
2023-03-27T07:55:03.310Z,5.18
2023-03-27T07:57:59.810Z,3.10
2023-03-27T08:00:35.206Z,6.38
2023-03-27T08:03:19.679Z,2.70
2023-03-27T08:05:58.285Z,6.68
2023-03-27T08:08:32.890Z,2.60
2023-03-27T08:11:09.655Z,6.10
2023-03-27T08:13:45.801Z,3.20
2023-03-27T08:16:19.316Z,4.97
2023-03-27T08:18:51.227Z,4.85
2023-03-27T08:21:23.875Z,2.70
2023-03-27T08:23:57.795Z,5.15
2023-03-27T08:26:40.487Z,3.90
2023-03-27T08:29:19.723Z,3.05
2023-03-27T08:31:52.744Z,2.97
2023-03-27T08:34:24.472Z,5.03
2023-03-27T08:36:58.000Z,4.18
2023-03-27T08:39:39.797Z,4.03
2023-03-27T08:42:19.211Z,4.93
2023-03-27T08:44:57.786Z,3.90
2023-03-27T08:47:50.514Z,5.68
2023-03-27T08:50:36.299Z,5.05
2023-03-27T08:56:13.920Z,6.45
2023-03-27T08:58:47.050Z,5.82
2023-03-27T09:01:49.342Z,21.67
2023-03-27T09:04:37.585Z,7.43
2023-03-27T09:07:19.006Z,6.88
2023-03-27T09:10:32.079Z,2.95
2023-03-27T09:13:20.898Z,4.00
2023-03-27T09:16:10.985Z,5.07
2023-03-27T09:18:56.306Z,3.55
2023-03-27T09:21:58.094Z,2.47
2023-03-27T09:24:54.233Z,5.00
2023-03-27T09:27:49.456Z,3.35
2023-03-27T09:30:33.800Z,2.38
2023-03-27T09:33:12.356Z,3.28
2023-03-27T09:35:46.698Z,3.60
2023-03-27T09:38:33.214Z,2.15
2023-03-27T09:41:13.079Z,2.05
2023-03-27T09:44:15.020Z,5.35
2023-03-27T09:46:52.336Z,2.10
2023-03-27T09:49:27.284Z,4.43
2023-03-27T09:52:02.791Z,3.78
2023-03-27T09:55:31.315Z,3.72
2023-03-27T09:58:35.455Z,3.53
2023-03-27T10:01:19.863Z,2.08
2023-03-27T10:03:59.701Z,2.13
2023-03-27T10:06:51.460Z,1.98
2023-03-27T10:09:34.867Z,1.27
2023-03-27T10:12:19.334Z,3.60
2023-03-27T10:14:53.151Z,1.83
2023-03-27T10:17:36.752Z,2.55
2023-03-27T10:20:18.713Z,2.75
2023-03-27T10:22:56.646Z,4.15
2023-03-27T10:25:38.876Z,1.48
2023-03-27T10:28:34.591Z,3.45
2023-03-27T10:31:36.400Z,3.88
2023-03-27T10:34:29.864Z,5.68
2023-03-27T10:37:24.335Z,3.47
2023-03-27T10:40:07.549Z,1.83
2023-03-27T10:42:43.992Z,4.28
2023-03-27T10:45:21.329Z,5.47
2023-03-27T10:47:59.358Z,5.22
2023-03-27T10:50:53.271Z,4.85
2023-03-27T10:53:55.009Z,5.18
2023-03-27T10:56:52.959Z,3.60
2023-03-27T10:59:55.097Z,6.03
2023-03-27T11:02:42.372Z,2.70
2023-03-27T11:05:19.395Z,2.90
2023-03-27T11:08:15.289Z,2.67
2023-03-27T11:10:49.488Z,3.03
2023-03-27T11:13:37.548Z,4.43
2023-03-27T11:16:37.258Z,3.00
2023-03-27T11:19:31.466Z,4.03
2023-03-27T11:22:33.042Z,2.20
2023-03-27T11:25:26.444Z,6.32
2023-03-27T11:28:10.962Z,3.13
2023-03-27T11:30:51.537Z,2.90
2023-03-27T11:33:29.622Z,2.03
2023-03-27T11:36:14.385Z,2.85
2023-03-27T11:39:15.402Z,2.45
2023-03-27T11:41:54.609Z,2.75
2023-03-27T11:44:30.458Z,3.50
2023-03-27T11:47:45.259Z,4.22
2023-03-27T11:50:22.871Z,3.28
2023-03-27T11:53:13.096Z,2.83
2023-03-27T11:56:45.539Z,2.53
2023-03-27T11:59:42.945Z,4.05
2023-03-27T12:02:37.783Z,3.30
2023-03-27T12:05:28.205Z,2.17
2023-03-27T12:08:10.159Z,2.30
2023-03-27T12:10:50.563Z,2.38
2023-03-27T12:13:58.137Z,4.45
2023-03-27T12:16:56.297Z,6.68
2023-03-27T12:19:46.805Z,4.97
2023-03-27T12:23:01.583Z,3.78
2023-03-27T12:25:56.586Z,3.63
2023-03-27T12:28:55.640Z,3.58
2023-03-27T12:32:22.048Z,4.85
2023-03-27T12:35:03.534Z,6.03
2023-03-27T12:37:48.788Z,6.03
2023-03-27T12:40:41.098Z,2.45
2023-03-27T12:43:27.771Z,3.20
2023-03-27T12:46:26.296Z,4.03
2023-03-27T12:49:00.870Z,1.60
2023-03-27T12:51:53.687Z,3.15
2023-03-27T12:55:06.504Z,3.83
2023-03-27T12:58:10.889Z,3.00
2023-03-27T13:04:01.484Z,3.22
2023-03-27T13:07:11.158Z,3.72
2023-03-27T13:10:47.099Z,5.00
2023-03-27T13:13:47.888Z,2.13
2023-03-27T13:16:45.257Z,3.83
2023-03-27T13:19:38.577Z,4.00
2023-03-27T13:22:24.479Z,3.72
2023-03-27T13:25:41.531Z,3.60
2023-03-27T13:28:28.915Z,3.95
2023-03-27T13:31:59.917Z,2.78
2023-03-27T13:35:17.104Z,6.60
2023-03-27T13:37:48.748Z,4.85
2023-03-27T13:40:36.806Z,3.33
2023-03-27T13:43:30.670Z,3.08
2023-03-27T13:46:29.289Z,2.88
2023-03-27T13:50:04.930Z,5.32
2023-03-27T13:53:07.882Z,6.82
2023-03-27T13:56:15.615Z,4.40
2023-03-27T13:59:47.957Z,4.57
2023-03-27T14:02:49.811Z,3.03
2023-03-27T14:05:46.468Z,4.55
2023-03-27T14:08:32.601Z,3.40
2023-03-27T14:11:38.018Z,4.05
2023-03-27T14:14:18.541Z,4.65
2023-03-27T14:17:22.220Z,4.45
2023-03-27T14:20:17.029Z,5.30
2023-03-27T14:22:54.398Z,5.03
2023-03-27T14:25:36.504Z,10.85
2023-03-27T14:28:51.683Z,3.88
2023-03-27T14:31:35.830Z,4.18
2023-03-27T14:34:25.582Z,4.65
2023-03-27T14:37:30.876Z,5.15
2023-03-27T14:40:28.136Z,5.97
2023-03-27T14:43:05.281Z,3.10
2023-03-27T14:45:40.812Z,2.38
2023-03-27T14:48:21.110Z,5.47
2023-03-27T14:51:03.266Z,2.35
2023-03-27T14:53:48.149Z,2.60
2023-03-27T14:56:29.527Z,6.05
2023-03-27T14:59:42.925Z,4.72
2023-03-27T15:02:20.653Z,4.15
2023-03-27T15:05:01.137Z,3.25
2023-03-27T15:07:35.496Z,6.43
2023-03-27T15:10:37.250Z,3.05
2023-03-27T15:13:12.026Z,2.60
2023-03-27T15:15:59.103Z,5.15
2023-03-27T15:18:58.883Z,3.55
2023-03-27T15:24:40.721Z,3.40
2023-03-27T15:27:20.086Z,3.47
2023-03-27T15:29:57.773Z,5.32
2023-03-27T15:32:42.461Z,4.90
2023-03-27T15:35:21.335Z,6.78
2023-03-27T15:37:54.118Z,3.40
2023-03-27T15:40:38.163Z,4.22
2023-03-27T15:43:13.782Z,2.72
2023-03-27T15:48:40.701Z,4.47
2023-03-27T15:51:20.415Z,2.95
2023-03-27T15:53:55.824Z,3.95
2023-03-27T15:56:43.829Z,4.95
2023-03-27T15:59:16.548Z,5.93
2023-03-27T16:01:54.176Z,6.68
2023-03-27T16:04:39.151Z,2.88
2023-03-27T16:07:25.553Z,4.95
2023-03-27T16:10:05.131Z,5.00
2023-03-27T16:12:40.759Z,4.07
2023-03-27T16:15:44.914Z,3.10
2023-03-27T16:18:25.047Z,3.45
2023-03-27T16:21:07.923Z,6.40
2023-03-27T16:23:40.756Z,5.10
2023-03-27T16:26:16.924Z,5.57
2023-03-27T16:28:52.720Z,3.65
2023-03-27T16:31:24.458Z,2.83
2023-03-27T16:33:58.333Z,3.88
2023-03-27T16:36:32.692Z,8.07
2023-03-27T16:39:04.894Z,7.57
2023-03-27T16:41:38.346Z,4.50
2023-03-27T16:44:10.020Z,4.43
2023-03-27T16:46:41.765Z,6.60
2023-03-27T16:49:13.516Z,4.60
2023-03-27T16:51:45.401Z,4.63
2023-03-27T16:54:17.135Z,6.22
2023-03-27T16:56:48.864Z,7.55
2023-03-27T16:59:20.741Z,3.90
2023-03-27T17:01:52.446Z,6.45
2023-03-27T17:04:24.589Z,4.28
2023-03-27T17:06:59.212Z,4.18
2023-03-27T17:09:32.357Z,2.55
2023-03-27T17:12:04.577Z,3.72
2023-03-27T17:14:36.371Z,3.95
2023-03-27T17:17:08.080Z,5.32
2023-03-27T17:19:42.466Z,5.47
2023-03-27T17:22:15.448Z,4.22
2023-03-27T17:24:56.236Z,4.90
2023-03-27T17:27:28.818Z,4.70
2023-03-27T19:15:46.832Z,5.10
2023-03-27T19:24:53.098Z,3.92
2023-03-27T19:27:25.802Z,4.35
2023-03-27T19:30:01.267Z,3.60
2023-03-27T19:32:33.158Z,4.00
2023-03-27T19:35:07.361Z,4.32
2023-03-27T19:37:39.399Z,3.75
2023-03-27T19:40:13.194Z,4.20
2023-03-27T19:42:45.423Z,2.88
2023-03-27T19:45:53.115Z,5.32
2023-03-27T19:48:30.782Z,8.15
2023-03-27T19:53:14.717Z,4.90
2023-03-27T19:55:46.495Z,4.10
2023-03-27T19:58:18.266Z,3.20
2023-03-27T20:00:52.585Z,3.75
2023-03-27T20:03:24.452Z,5.05
2023-03-27T20:06:07.572Z,5.22
2023-03-27T20:08:40.608Z,6.70
2023-03-27T20:11:12.427Z,4.03
2023-03-27T20:13:55.511Z,4.53
2023-03-27T20:16:29.340Z,10.30
2023-03-27T20:19:04.511Z,5.00
2023-03-27T20:21:43.525Z,6.18
2023-03-27T20:24:18.699Z,4.95
2023-03-27T20:27:02.193Z,5.68
2023-03-27T20:29:33.912Z,4.88
2023-03-27T20:32:07.595Z,7.18
2023-03-27T20:34:40.626Z,5.85
2023-03-27T20:37:17.114Z,4.25
2023-03-27T20:40:12.969Z,4.10
2023-03-27T20:42:49.315Z,3.95
2023-03-27T20:45:26.701Z,5.28
2023-03-27T20:48:03.423Z,6.20
2023-03-27T20:50:36.661Z,3.60
2023-03-27T20:53:10.434Z,5.65
2023-03-27T20:55:49.875Z,3.95
2023-03-27T20:58:37.935Z,5.72
2023-03-27T21:01:10.492Z,8.68
2023-03-27T21:03:46.317Z,5.05
2023-03-27T21:06:20.569Z,5.15
2023-03-27T21:08:52.331Z,6.93
2023-03-27T21:11:24.260Z,5.03
2023-03-27T21:13:56.186Z,4.30
2023-03-27T21:16:28.552Z,4.82
2023-03-27T21:19:00.432Z,5.13
2023-03-27T21:21:39.162Z,4.18
2023-03-27T21:24:13.756Z,6.25
2023-03-27T21:26:45.786Z,4.20
2023-03-27T21:29:17.507Z,8.82
2023-03-27T21:34:22.122Z,7.22
2023-03-27T21:36:53.861Z,5.93
2023-03-27T21:39:25.807Z,5.82
2023-03-27T21:41:57.539Z,4.53
2023-03-27T21:44:29.355Z,4.57
2023-03-27T21:47:03.858Z,5.57
2023-03-27T21:49:38.621Z,3.90
2023-03-27T21:54:49.897Z,6.70
2023-03-27T21:57:28.174Z,5.65
2023-03-27T22:00:00.341Z,5.45
2023-03-27T22:02:34.976Z,5.03
2023-03-27T22:05:07.608Z,5.05
2023-03-27T22:07:39.358Z,6.63
2023-03-27T22:10:12.150Z,4.57
2023-03-27T22:12:43.879Z,6.65
2023-03-27T22:15:15.890Z,6.28
2023-03-27T22:17:53.653Z,4.47
2023-03-27T22:20:32.013Z,4.07
2023-03-27T22:23:03.712Z,4.38
2023-03-27T22:25:35.858Z,4.35
2023-03-27T22:28:07.582Z,5.75
2023-03-27T22:30:39.302Z,6.63
2023-03-27T22:33:11.052Z,5.45
2023-03-27T22:35:48.473Z,4.78
2023-03-27T22:38:20.206Z,4.57
2023-03-27T22:40:51.964Z,4.50
2023-03-27T22:43:24.446Z,2.88
2023-03-27T22:45:56.490Z,3.58
2023-03-27T22:48:28.286Z,5.93
2023-03-27T22:51:00.589Z,3.53
2023-03-27T22:53:33.216Z,2.75
2023-03-27T22:56:07.052Z,4.00
2023-03-27T22:58:42.419Z,3.65
2023-03-27T23:03:45.974Z,4.70
2023-03-27T23:06:20.355Z,3.88
2023-03-27T23:08:52.681Z,3.35
2023-03-27T23:11:24.443Z,4.10
2023-03-27T23:13:56.153Z,5.95
2023-03-27T23:16:30.809Z,2.65
2023-03-27T23:19:02.983Z,3.92
2023-03-27T23:21:34.740Z,2.92
2023-03-27T23:24:07.974Z,4.45
2023-03-27T23:26:40.757Z,3.72
2023-03-27T23:29:12.685Z,3.75
2023-03-27T23:31:44.395Z,3.30
2023-03-27T23:34:16.126Z,4.43
2023-03-27T23:36:47.872Z,3.75
2023-03-27T23:39:19.547Z,3.17
2023-03-27T23:41:55.345Z,3.60
2023-03-27T23:44:30.278Z,5.75
2023-03-27T23:47:02.079Z,6.43
2023-03-27T23:49:34.099Z,2.15
2023-03-27T23:52:05.982Z,6.72
2023-03-27T23:54:37.933Z,3.67
2023-03-27T23:57:10.752Z,2.55
2023-03-27T23:59:42.524Z,2.88
